TAF and METAR

METAR for Quatro de Fevereiro Airport

FNLU 011700Z 23008KT 9999 SCT020 28/23 Q1007 NOSIG
Report created 1. apr 19:00
wind 8 knots from SW (230°) visibility > 10km scattered clouds (~50% cover) at 2000 feet Temperature 28° with dewpoint at 23° (Humidity 74.36%) Pressure 1007 hPa no significant weather change expected the next couple of hours

TAF for Quatro de Fevereiro Airport

TAF FNLU 011100Z 0112/0218 25009KT 9999 FEW020CB BKN030 BECMG 0119/0121 18006KT 8000 TEMPO 0204/0208 SCT020 BKN050
Report created 1. apr 13:00

between 1. apr 14:00 - 2. apr 20:00

wind 9 knots from WSW (250°) visibility > 10km some clouds (~25% cover) at 2000 feet of type cumulonimbus broken clouds (~75% cover) at 3000 feet

becoming between 1. apr 21:00 - 1. apr 23:00

wind 6 knots from S (180°) visibility 8000 meters

temporarily between 2. apr 06:00 - 2. apr 10:00

scattered clouds (~50% cover) at 2000 feet broken clouds (~75% cover) at 5000 feet
Quatro de Fevereiro Airport in Angola at 70m

Latest 5 airports